Time;durP1;ratioP1;P1;durP2;ratioP2;P2;SDS_P1;SDS_P2;PMS_P1;PMS_P2;Temp;Humidity;BMP_temperature;BMP_pressure;BME280_temperature;BME280_humidity;BME280_pressure;Samples;Min_cycle;Max_cycle;Signal;HPM_P1;HPM_P2
2021/12/31 00:02:00;;;;;;;21.05;3.13;;;;;;;12.62;100.00;101349.56;4913041;28;20069;-75
2021/12/31 00:04:25;;;;;;;14.48;4.25;;;;;;;12.63;100.00;101351.19;4927041;28;20093;-75
2021/12/31 00:06:51;;;;;;;20.23;4.78;;;;;;;12.63;100.00;101353.06;4909489;28;20524;-76
2021/12/31 00:09:16;;;;;;;21.63;4.47;;;;;;;12.63;100.00;101353.91;4912777;28;20117;-75
2021/12/31 00:11:42;;;;;;;13.60;3.40;;;;;;;12.69;100.00;101359.50;4929574;28;20041;-75
2021/12/31 00:14:07;;;;;;;22.77;4.10;;;;;;;12.67;100.00;101351.63;4909807;28;20047;-75
2021/12/31 00:16:33;;;;;;;26.45;4.47;;;;;;;12.70;100.00;101339.53;4929553;28;20225;-75
2021/12/31 00:18:58;;;;;;;19.75;4.25;;;;;;;12.66;100.00;101342.66;4926817;28;20520;-76
2021/12/31 00:21:24;;;;;;;21.65;5.05;;;;;;;12.63;100.00;101340.38;4913391;28;20043;-76
2021/12/31 00:23:49;;;;;;;23.30;4.25;;;;;;;12.60;100.00;101343.53;4929892;28;20038;-75
2021/12/31 00:26:15;;;;;;;25.02;4.43;;;;;;;12.56;100.00;101333.34;4911925;28;20074;-75
2021/12/31 00:28:40;;;;;;;17.92;4.93;;;;;;;12.54;100.00;101335.47;4928912;28;21107;-76
2021/12/31 00:31:06;;;;;;;30.40;6.38;;;;;;;12.52;100.00;101330.25;4925071;28;20952;-75
2021/12/31 00:33:31;;;;;;;23.42;4.07;;;;;;;12.54;100.00;101330.06;4915278;28;20127;-75
2021/12/31 00:35:57;;;;;;;24.70;4.72;;;;;;;12.50;100.00;101329.66;4944300;28;20041;-75
2021/12/31 00:38:22;;;;;;;19.83;4.70;;;;;;;12.49;100.00;101327.97;4913065;28;20162;-75
2021/12/31 00:40:48;;;;;;;21.85;4.25;;;;;;;12.46;100.00;101338.38;4928476;28;20031;-76
2021/12/31 00:43:13;;;;;;;26.30;4.20;;;;;;;12.49;100.00;101351.47;4923463;28;20039;-75
2021/12/31 00:45:41;;;;;;;22.13;4.00;;;;;;;12.45;100.00;101342.13;4914374;28;20566;-75
2021/12/31 00:48:08;;;;;;;24.13;4.22;;;;;;;12.45;100.00;101332.16;4927007;28;20077;-75
2021/12/31 00:50:34;;;;;;;26.55;4.15;;;;;;;12.34;100.00;101333.63;4912173;28;20499;-75
2021/12/31 00:53:00;;;;;;;17.40;3.80;;;;;;;12.35;100.00;101326.38;4927472;28;20043;-75
2021/12/31 00:55:25;;;;;;;23.58;3.83;;;;;;;12.46;100.00;101341.94;4922025;28;20069;-75
2021/12/31 00:57:51;;;;;;;18.00;4.00;;;;;;;12.38;100.00;101332.16;4918533;28;20051;-75
2021/12/31 01:00:16;;;;;;;18.80;4.35;;;;;;;12.34;100.00;101338.22;4929400;28;20270;-75
2021/12/31 01:02:46;;;;;;;27.40;4.57;;;;;;;12.31;100.00;101333.25;4909747;28;20085;-75
2021/12/31 01:05:12;;;;;;;24.85;4.35;;;;;;;12.32;100.00;101337.59;4928465;28;20034;-76
2021/12/31 01:07:38;;;;;;;28.50;4.55;;;;;;;12.35;100.00;101345.28;4920900;28;20109;-76
2021/12/31 01:10:05;;;;;;;23.80;4.68;;;;;;;12.30;100.00;101334.28;4901807;28;25165;-75
2021/12/31 01:12:30;;;;;;;24.38;4.32;;;;;;;12.30;100.00;101354.03;4928057;28;20039;-75
2021/12/31 01:15:06;;;;;;;25.38;5.25;;;;;;;12.29;100.00;101344.28;4912651;28;20047;-76
2021/12/31 01:20:11;;;;;;;27.10;3.95;;;;;;;12.24;100.00;101354.84;4913570;28;20058;-76
2021/12/31 01:22:36;;;;;;;27.15;5.32;;;;;;;12.29;100.00;101338.88;4909816;28;20695;-76
2021/12/31 01:25:04;;;;;;;18.05;4.40;;;;;;;12.18;100.00;101332.25;4927662;28;20038;-76
2021/12/31 01:27:30;;;;;;;22.15;4.78;;;;;;;12.16;100.00;101334.31;4894308;28;22455;-74
2021/12/31 01:29:56;;;;;;;26.52;5.78;;;;;;;12.17;100.00;101335.97;4926981;28;20058;-76
2021/12/31 01:32:22;;;;;;;21.05;4.50;;;;;;;12.21;100.00;101351.75;4894958;28;20534;-76
2021/12/31 01:34:47;;;;;;;29.38;5.22;;;;;;;12.29;100.00;101352.38;4925658;28;20027;-75
2021/12/31 01:37:13;;;;;;;28.65;4.85;;;;;;;12.33;100.00;101348.19;4927378;28;20039;-74
2021/12/31 01:39:38;;;;;;;20.23;4.05;;;;;;;12.31;100.00;101342.16;4911420;28;20051;-75
2021/12/31 01:42:08;;;;;;;20.67;4.78;;;;;;;12.29;100.00;101346.16;4927797;28;20507;-75
2021/12/31 01:44:41;;;;;;;25.15;4.90;;;;;;;12.26;100.00;101344.69;4914102;28;20398;-76
2021/12/31 01:47:12;;;;;;;23.23;5.47;;;;;;;12.22;100.00;101339.94;4910511;28;20263;-75
2021/12/31 01:49:53;;;;;;;21.95;4.72;;;;;;;12.22;100.00;101337.22;4919544;28;20042;-75
2021/12/31 01:52:18;;;;;;;28.35;4.70;;;;;;;12.17;100.00;101341.38;4917777;28;20149;-75
2021/12/31 01:54:43;;;;;;;16.75;4.03;;;;;;;12.14;100.00;101331.00;4926111;28;20027;-75
2021/12/31 01:57:15;;;;;;;22.88;4.70;;;;;;;12.24;100.00;101348.63;4884873;28;20110;-75
2021/12/31 01:59:41;;;;;;;27.15;4.60;;;;;;;12.12;100.00;101343.88;4923780;28;20035;-75
2021/12/31 02:02:08;;;;;;;25.92;5.47;;;;;;;12.23;100.00;101334.31;4922318;28;20099;-75
2021/12/31 02:04:36;;;;;;;25.42;5.20;;;;;;;12.10;100.00;101345.94;4916152;28;20133;-77
2021/12/31 02:07:02;;;;;;;20.90;4.57;;;;;;;12.12;100.00;101343.06;4908205;28;20037;-75
2021/12/31 02:09:30;;;;;;;27.38;5.78;;;;;;;12.11;100.00;101338.69;4908794;28;20106;-75
2021/12/31 02:11:56;;;;;;;16.83;4.18;;;;;;;12.10;100.00;101335.16;4925923;28;23746;-75
2021/12/31 02:14:21;;;;;;;25.92;5.05;;;;;;;12.23;100.00;101344.28;4905347;28;20047;-75
2021/12/31 02:16:47;;;;;;;20.92;4.65;;;;;;;12.21;100.00;101338.25;4916535;28;20051;-75
2021/12/31 02:19:25;;;;;;;21.55;4.25;;;;;;;12.27;100.00;101340.13;4923649;28;20027;-75
2021/12/31 02:21:51;;;;;;;19.52;4.80;;;;;;;12.24;100.00;101338.66;4912260;28;20553;-75
2021/12/31 02:24:18;;;;;;;25.33;5.13;;;;;;;12.24;100.00;101324.31;4925286;28;20074;-75
2021/12/31 02:26:43;;;;;;;19.52;4.72;;;;;;;12.25;100.00;101332.22;4909117;28;20085;-74
2021/12/31 02:29:09;;;;;;;24.58;4.68;;;;;;;12.26;100.00;101322.25;4924158;28;23039;-74
2021/12/31 02:31:34;;;;;;;27.10;5.28;;;;;;;12.30;100.00;101326.19;4923838;28;22601;-73
2021/12/31 02:34:00;;;;;;;18.60;4.35;;;;;;;12.34;100.00;101316.59;4907188;28;20086;-76
2021/12/31 02:36:25;;;;;;;21.67;4.60;;;;;;;12.39;100.00;101311.41;4924326;28;21655;-76
2021/12/31 02:38:50;;;;;;;20.95;4.35;;;;;;;12.50;100.00;101326.94;4907601;28;20059;-76
2021/12/31 02:41:16;;;;;;;17.73;4.70;;;;;;;12.42;100.00;101316.38;4926368;28;20031;-76
2021/12/31 02:43:42;;;;;;;15.70;4.82;;;;;;;12.45;100.00;101307.00;4923933;28;20031;-76
2021/12/31 02:46:07;;;;;;;15.43;4.03;;;;;;;12.41;100.00;101312.84;4911359;28;20054;-76
2021/12/31 02:48:33;;;;;;;20.40;4.20;;;;;;;12.38;100.00;101307.84;4922760;28;20124;-76
2021/12/31 02:51:01;;;;;;;27.25;4.80;;;;;;;12.41;100.00;101320.13;4905543;28;20729;-76
2021/12/31 02:53:32;;;;;;;14.52;3.53;;;;;;;12.50;100.00;101313.44;4923128;28;20101;-76
2021/12/31 02:56:00;;;;;;;16.02;4.05;;;;;;;12.46;100.00;101317.63;4918865;28;20041;-76
2021/12/31 02:58:26;;;;;;;15.88;3.20;;;;;;;12.52;100.00;101318.63;4915497;28;20693;-76
2021/12/31 03:00:52;;;;;;;18.10;3.88;;;;;;;12.49;100.00;101325.28;4925156;28;20038;-74
2021/12/31 03:03:18;;;;;;;19.27;4.15;;;;;;;12.52;100.00;101311.34;4891239;28;20173;-74
2021/12/31 03:05:44;;;;;;;18.50;4.55;;;;;;;12.50;100.00;101308.03;4907440;28;20043;-74
2021/12/31 03:08:11;;;;;;;23.58;5.00;;;;;;;12.53;100.00;101322.97;4920505;28;20391;-77
2021/12/31 03:10:37;;;;;;;17.40;4.07;;;;;;;12.61;100.00;101314.63;4898574;28;20516;-75
2021/12/31 03:13:03;;;;;;;16.90;4.13;;;;;;;12.55;100.00;101305.50;4923874;28;20089;-75
2021/12/31 03:15:28;;;;;;;15.45;3.90;;;;;;;12.63;100.00;101307.97;4908372;28;20821;-74
2021/12/31 03:17:57;;;;;;;15.02;4.00;;;;;;;12.59;100.00;101301.31;4925109;28;20031;-74
2021/12/31 03:20:36;;;;;;;17.35;3.80;;;;;;;12.62;100.00;101319.00;4886740;28;20049;-74
2021/12/31 03:23:02;;;;;;;19.85;3.53;;;;;;;12.59;100.00;101300.50;4898977;28;20082;-74
2021/12/31 03:25:28;;;;;;;15.57;3.47;;;;;;;12.57;100.00;101303.44;4924711;28;20084;-74
2021/12/31 03:27:53;;;;;;;17.98;3.75;;;;;;;12.58;100.00;101312.38;4910014;28;20075;-74
2021/12/31 03:30:19;;;;;;;15.95;4.20;;;;;;;12.54;100.00;101303.84;4924695;28;20058;-75
2021/12/31 03:32:44;;;;;;;16.58;4.38;;;;;;;12.59;100.00;101316.72;4932637;28;20050;-75
2021/12/31 03:35:10;;;;;;;16.02;4.20;;;;;;;12.56;100.00;101301.75;4914994;28;20055;-75
2021/12/31 03:37:36;;;;;;;14.27;3.63;;;;;;;12.62;100.00;101317.13;4923241;28;20133;-75
2021/12/31 03:40:01;;;;;;;7.25;3.22;;;;;;;12.58;100.00;101310.50;4905427;28;20051;-75
2021/12/31 03:42:27;;;;;;;19.88;3.60;;;;;;;12.65;100.00;101311.28;4923464;28;20134;-75
2021/12/31 03:44:52;;;;;;;12.25;3.38;;;;;;;12.66;100.00;101304.81;4906346;28;20043;-74
2021/12/31 03:47:18;;;;;;;13.50;4.18;;;;;;;12.66;100.00;101302.13;4906780;28;20112;-75
2021/12/31 03:49:43;;;;;;;13.27;3.38;;;;;;;12.67;100.00;101302.97;4924868;28;20039;-76
2021/12/31 03:52:09;;;;;;;13.57;3.03;;;;;;;12.68;100.00;101301.09;4908476;28;20625;-75
2021/12/31 03:54:34;;;;;;;14.45;3.78;;;;;;;12.68;100.00;101303.81;4925781;28;20030;-74
2021/12/31 03:56:59;;;;;;;13.57;3.30;;;;;;;12.60;100.00;101294.03;4910085;28;20079;-75
2021/12/31 03:59:25;;;;;;;15.55;4.03;;;;;;;12.58;100.00;101294.28;4924744;28;20042;-74
2021/12/31 04:01:51;;;;;;;15.73;3.22;;;;;;;12.52;100.00;101297.81;4922863;28;20106;-75
2021/12/31 04:04:16;;;;;;;13.45;3.70;;;;;;;12.54;100.00;101279.53;4907600;28;20171;-74
2021/12/31 04:06:41;;;;;;;13.57;3.13;;;;;;;12.56;100.00;101274.72;4926649;28;20048;-77
2021/12/31 04:09:07;;;;;;;15.50;3.20;;;;;;;12.62;100.00;101263.06;4890985;28;20047;-74
2021/12/31 04:11:32;;;;;;;10.85;2.75;;;;;;;12.67;100.00;101259.72;4925127;28;20138;-74
2021/12/31 04:13:58;;;;;;;10.27;2.72;;;;;;;12.71;100.00;101276.34;4924229;28;20020;-74
2021/12/31 04:16:24;;;;;;;14.32;2.92;;;;;;;12.69;100.00;101267.63;4906726;28;20543;-74
2021/12/31 04:18:49;;;;;;;12.95;2.92;;;;;;;12.66;100.00;101269.69;4923487;28;20035;-76
2021/12/31 04:21:16;;;;;;;10.15;2.78;;;;;;;12.76;100.00;101268.41;4908713;28;20101;-75
2021/12/31 04:24:03;;;;;;;11.57;2.83;;;;;;;12.73;100.00;101264.25;4928147;28;20054;-76
2021/12/31 04:26:29;;;;;;;16.27;2.75;;;;;;;12.71;100.00;101265.53;4937651;28;20042;-76
2021/12/31 04:28:55;;;;;;;12.18;2.80;;;;;;;12.77;100.00;101270.06;4916652;28;20051;-76
2021/12/31 04:31:20;;;;;;;12.45;3.15;;;;;;;12.74;100.00;101259.66;4928441;28;20046;-76
2021/12/31 04:33:46;;;;;;;12.40;3.22;;;;;;;12.76;100.00;101274.63;4893231;28;20047;-75
2021/12/31 04:36:13;;;;;;;15.40;2.85;;;;;;;12.75;100.00;101272.97;4926577;28;20707;-76
2021/12/31 04:38:38;;;;;;;11.93;3.20;;;;;;;12.76;100.00;101298.13;4920485;28;20137;-76
2021/12/31 04:41:04;;;;;;;11.50;2.50;;;;;;;12.81;100.00;101287.50;4918667;28;20130;-76
2021/12/31 04:43:29;;;;;;;14.18;3.00;;;;;;;12.80;100.00;101275.03;4927742;28;20141;-75
2021/12/31 04:45:55;;;;;;;14.60;3.33;;;;;;;12.84;100.00;101271.66;4912960;28;20080;-76
2021/12/31 04:48:21;;;;;;;14.93;3.00;;;;;;;12.89;100.00;101276.44;4909583;28;24566;-75
2021/12/31 04:50:46;;;;;;;10.55;2.90;;;;;;;12.88;100.00;101258.53;4918507;28;20051;-75
2021/12/31 04:53:12;;;;;;;11.30;3.00;;;;;;;12.93;100.00;101272.25;4916379;28;20145;-76
2021/12/31 04:55:37;;;;;;;12.55;2.65;;;;;;;12.99;100.00;101274.09;4924325;28;20110;-76
2021/12/31 04:58:03;;;;;;;15.18;3.10;;;;;;;12.96;100.00;101263.72;4909626;28;20066;-76
2021/12/31 05:00:28;;;;;;;12.40;3.17;;;;;;;13.02;100.00;101262.84;4926068;28;20038;-76
2021/12/31 05:02:54;;;;;;;8.70;2.47;;;;;;;13.00;100.00;101264.91;4888996;28;20051;-76
2021/12/31 05:05:19;;;;;;;20.27;3.15;;;;;;;12.95;100.00;101253.94;4918419;28;20043;-75
2021/12/31 05:07:45;;;;;;;13.07;3.38;;;;;;;12.95;100.00;101255.78;4927079;28;20038;-75
2021/12/31 05:10:10;;;;;;;11.48;2.63;;;;;;;12.96;100.00;101239.38;4911158;28;20736;-75
2021/12/31 05:12:38;;;;;;;9.65;2.40;;;;;;;12.94;100.00;101230.63;4910552;28;20038;-76
2021/12/31 05:15:09;;;;;;;8.55;2.65;;;;;;;12.89;100.00;101227.78;4918991;28;23820;-76
2021/12/31 05:17:36;;;;;;;9.80;2.78;;;;;;;12.80;100.00;101229.06;4917736;28;20054;-76
2021/12/31 05:20:03;;;;;;;7.25;3.08;;;;;;;12.65;100.00;101227.50;4926379;28;20039;-76
2021/12/31 05:22:28;;;;;;;14.82;3.17;;;;;;;12.58;100.00;101218.59;4909991;28;20058;-75
2021/12/31 05:24:54;;;;;;;11.85;2.97;;;;;;;12.54;100.00;101222.78;4926076;28;20050;-75
2021/12/31 05:27:20;;;;;;;11.18;3.08;;;;;;;12.60;100.00;101216.53;4894873;28;20133;-75
2021/12/31 05:29:45;;;;;;;11.75;3.22;;;;;;;12.56;100.00;101217.16;4927388;28;20077;-75
2021/12/31 05:32:11;;;;;;;12.88;2.92;;;;;;;12.65;100.00;101227.50;4928154;28;20225;-75
2021/12/31 05:34:36;;;;;;;7.13;2.53;;;;;;;12.68;100.00;101220.84;4909340;28;20081;-75
2021/12/31 05:37:02;;;;;;;12.80;3.60;;;;;;;12.63;100.00;101216.06;4925520;28;20046;-75
2021/12/31 05:39:27;;;;;;;6.78;3.83;;;;;;;12.66;100.00;101212.94;4926791;28;20053;-75
2021/12/31 05:41:54;;;;;;;10.20;4.35;;;;;;;12.68;100.00;101228.94;4926248;28;20521;-76
2021/12/31 05:44:20;;;;;;;11.10;4.55;;;;;;;12.71;100.00;101216.88;4926639;28;20085;-75
2021/12/31 05:46:48;;;;;;;10.35;4.25;;;;;;;12.76;100.00;101209.75;4910066;28;20134;-76
2021/12/31 05:49:14;;;;;;;13.55;4.68;;;;;;;12.73;100.00;101217.47;4911222;28;20503;-76
2021/12/31 05:51:39;;;;;;;9.82;4.57;;;;;;;12.77;100.00;101216.00;4913106;28;20133;-75
2021/12/31 05:54:05;;;;;;;13.77;4.53;;;;;;;12.75;100.00;101228.91;4927183;28;20031;-75
2021/12/31 05:56:30;;;;;;;8.82;4.65;;;;;;;12.69;100.00;101218.97;4941333;28;20038;-75
2021/12/31 05:58:56;;;;;;;10.55;4.95;;;;;;;12.73;100.00;101231.00;4913680;28;20518;-74
2021/12/31 06:01:21;;;;;;;10.98;4.07;;;;;;;12.74;100.00;101219.97;4927167;28;20058;-75
2021/12/31 06:03:47;;;;;;;11.65;4.25;;;;;;;12.78;100.00;101221.19;4911515;28;20160;-75
2021/12/31 06:06:12;;;;;;;9.52;4.38;;;;;;;12.74;100.00;101216.41;4895566;28;20047;-75
2021/12/31 06:08:38;;;;;;;8.77;4.38;;;;;;;12.71;100.00;101216.88;4928176;28;20117;-75
2021/12/31 06:11:03;;;;;;;10.30;4.43;;;;;;;12.75;100.00;101218.09;4880450;28;20055;-75
2021/12/31 06:13:29;;;;;;;11.20;4.03;;;;;;;12.75;100.00;101231.63;4910032;28;20035;-75
2021/12/31 06:15:57;;;;;;;10.15;3.65;;;;;;;12.78;100.00;101223.91;4909163;28;20053;-75
2021/12/31 06:18:25;;;;;;;8.85;3.70;;;;;;;12.81;100.00;101203.69;4925350;28;20031;-75
2021/12/31 06:20:53;;;;;;;8.23;3.33;;;;;;;12.83;100.00;101221.34;4925666;28;20039;-75
2021/12/31 06:23:19;;;;;;;9.75;3.63;;;;;;;12.84;100.00;101216.78;4910026;28;20155;-75
2021/12/31 06:25:44;;;;;;;8.65;3.38;;;;;;;12.89;100.00;101230.47;4925429;28;20066;-75
2021/12/31 06:28:10;;;;;;;7.75;3.17;;;;;;;12.89;100.00;101233.19;4908190;28;20122;-75
2021/12/31 06:30:35;;;;;;;10.73;2.78;;;;;;;12.89;100.00;101230.47;4909285;28;20747;-75
2021/12/31 06:33:01;;;;;;;8.65;2.90;;;;;;;12.93;100.00;101257.91;4926731;28;20039;-75
2021/12/31 06:35:26;;;;;;;9.00;2.78;;;;;;;12.95;100.00;101236.88;4909903;28;20058;-75
2021/12/31 06:37:53;;;;;;;6.07;2.90;;;;;;;12.94;100.00;101216.28;4926917;28;20046;-75
2021/12/31 06:40:19;;;;;;;9.15;3.63;;;;;;;12.91;100.00;101214.84;4908260;28;20050;-75
2021/12/31 06:42:45;;;;;;;8.88;2.88;;;;;;;12.88;100.00;101223.38;4925300;28;20114;-75
2021/12/31 06:45:10;;;;;;;10.23;3.17;;;;;;;12.84;100.00;101217.59;4921572;28;20039;-75
2021/12/31 06:47:36;;;;;;;11.77;3.60;;;;;;;12.77;100.00;101211.41;4913676;28;20050;-75
2021/12/31 06:50:03;;;;;;;7.43;3.08;;;;;;;12.72;100.00;101207.72;4924925;28;20035;-76
2021/12/31 06:52:28;;;;;;;7.50;2.90;;;;;;;12.68;100.00;101201.09;4895186;28;20517;-75
2021/12/31 06:54:54;;;;;;;9.98;2.85;;;;;;;12.70;100.00;101196.28;4924456;28;20035;-75
2021/12/31 06:57:19;;;;;;;10.65;3.03;;;;;;;12.66;100.00;101204.81;4918284;28;20160;-75
2021/12/31 06:59:44;;;;;;;6.47;2.40;;;;;;;12.63;100.00;101199.84;4916412;28;20059;-75
2021/12/31 07:02:10;;;;;;;7.18;2.38;;;;;;;12.59;100.00;101208.63;4926051;28;20070;-75
2021/12/31 07:04:35;;;;;;;7.75;2.35;;;;;;;12.61;100.00;101214.66;4918439;28;20035;-76
2021/12/31 07:07:01;;;;;;;9.40;2.80;;;;;;;12.63;100.00;101221.47;4921844;28;22406;-75
2021/12/31 07:09:26;;;;;;;9.68;3.20;;;;;;;12.68;100.00;101228.13;4916336;28;20029;-75
2021/12/31 07:11:52;;;;;;;7.32;3.00;;;;;;;12.73;100.00;101220.19;4915602;28;23639;-76
2021/12/31 07:14:17;;;;;;;7.55;2.35;;;;;;;12.77;100.00;101219.50;4907174;28;20716;-75
2021/12/31 07:16:42;;;;;;;6.15;2.40;;;;;;;12.83;100.00;101229.47;4911693;28;20070;-76
2021/12/31 07:19:08;;;;;;;9.82;2.70;;;;;;;12.80;100.00;101220.97;4924662;28;20154;-75
2021/12/31 07:21:33;;;;;;;6.47;2.55;;;;;;;12.89;100.00;101208.84;4917969;28;21447;-76
2021/12/31 07:23:59;;;;;;;9.45;2.42;;;;;;;12.85;100.00;101203.06;4912559;28;20193;-76
2021/12/31 07:26:24;;;;;;;7.68;2.53;;;;;;;12.92;100.00;101197.59;4923703;28;20030;-76
2021/12/31 07:28:50;;;;;;;7.50;2.20;;;;;;;12.88;100.00;101188.25;4904358;28;22110;-75
2021/12/31 07:31:16;;;;;;;8.27;2.30;;;;;;;12.78;100.00;101182.53;4925707;28;20507;-76
2021/12/31 07:33:42;;;;;;;5.35;2.17;;;;;;;12.71;100.00;101176.34;4917298;28;20109;-76
2021/12/31 07:36:08;;;;;;;6.47;1.98;;;;;;;12.73;100.00;101198.56;4915019;28;20054;-74
2021/12/31 07:38:37;;;;;;;4.90;2.22;;;;;;;12.70;100.00;101204.38;4905672;28;20471;-76
2021/12/31 07:41:03;;;;;;;6.32;2.30;;;;;;;12.76;100.00;101208.94;4907551;28;20051;-76
2021/12/31 07:43:29;;;;;;;6.63;2.88;;;;;;;12.66;100.00;101215.63;4923163;28;20411;-75
2021/12/31 07:45:54;;;;;;;9.02;2.22;;;;;;;12.61;100.00;101220.06;4916089;28;20078;-75
2021/12/31 07:48:21;;;;;;;10.55;2.33;;;;;;;12.52;100.00;101211.34;4895350;28;20109;-75
2021/12/31 07:50:47;;;;;;;7.63;2.20;;;;;;;12.39;100.00;101227.66;4923189;28;21063;-75
2021/12/31 07:53:12;;;;;;;8.07;3.08;;;;;;;12.35;100.00;101218.31;4908224;28;20340;-75
2021/12/31 07:55:38;;;;;;;9.50;2.33;;;;;;;12.27;100.00;101240.16;4922558;28;20046;-75
2021/12/31 07:58:05;;;;;;;6.68;2.40;;;;;;;12.29;100.00;101219.19;4917608;28;20119;-75
2021/12/31 08:00:31;;;;;;;7.13;2.22;;;;;;;12.24;100.00;101233.31;4932013;28;20056;-75
2021/12/31 08:02:57;;;;;;;6.50;2.50;;;;;;;12.36;100.00;101242.41;4927474;28;20034;-76
2021/12/31 08:05:24;;;;;;;6.22;2.30;;;;;;;12.41;100.00;101225.56;4909287;28;20051;-75
2021/12/31 08:07:49;;;;;;;4.97;2.75;;;;;;;12.46;100.00;101239.25;4911309;28;20050;-76
2021/12/31 08:10:15;;;;;;;8.98;3.13;;;;;;;12.46;100.00;101247.38;4910279;28;20185;-77
2021/12/31 08:12:40;;;;;;;4.28;2.30;;;;;;;12.48;100.00;101255.25;4907414;28;20161;-78
2021/12/31 08:15:06;;;;;;;6.13;2.45;;;;;;;12.53;100.00;101247.31;4922204;28;22816;-77
2021/12/31 08:17:31;;;;;;;6.38;2.15;;;;;;;12.55;100.00;101258.75;4908812;28;24067;-78
2021/12/31 08:19:57;;;;;;;7.32;2.67;;;;;;;12.59;100.00;101268.91;4930361;28;20085;-76
2021/12/31 08:22:23;;;;;;;6.10;2.03;;;;;;;12.66;100.00;101279.69;4906905;28;20046;-76
2021/12/31 08:24:49;;;;;;;9.30;2.85;;;;;;;12.60;100.00;101286.78;4906931;28;20039;-75
2021/12/31 08:27:14;;;;;;;8.15;2.47;;;;;;;12.64;100.00;101282.59;4923840;28;20043;-76
2021/12/31 08:29:40;;;;;;;8.98;2.83;;;;;;;12.59;100.00;101301.31;4925635;28;20043;-75
2021/12/31 08:32:06;;;;;;;5.90;2.50;;;;;;;12.60;100.00;101296.75;4927069;28;20043;-75
2021/12/31 08:34:32;;;;;;;12.05;3.10;;;;;;;12.68;100.00;101279.47;4909633;28;20139;-76
2021/12/31 08:36:57;;;;;;;5.68;3.10;;;;;;;12.68;100.00;101282.19;4941016;28;20552;-76
2021/12/31 08:39:22;;;;;;;9.13;3.63;;;;;;;12.79;100.00;101278.78;4924085;28;20050;-76
2021/12/31 08:41:48;;;;;;;7.63;2.90;;;;;;;12.76;100.00;101279.22;4895119;28;20145;-75
2021/12/31 08:44:14;;;;;;;9.52;3.03;;;;;;;12.81;100.00;101271.28;4909366;28;20034;-75
2021/12/31 08:46:40;;;;;;;7.53;2.70;;;;;;;12.83;100.00;101274.59;4909551;28;20065;-76
2021/12/31 08:49:06;;;;;;;8.70;2.90;;;;;;;12.80;100.00;101269.63;4927358;28;22622;-75
2021/12/31 08:51:31;;;;;;;6.93;2.65;;;;;;;12.77;100.00;101226.81;4925108;28;20038;-75
2021/12/31 08:53:57;;;;;;;8.63;3.70;;;;;;;12.81;100.00;101271.28;4910866;28;20054;-74
2021/12/31 08:56:22;;;;;;;10.80;3.50;;;;;;;12.85;100.00;101275.22;4925831;28;20063;-77
2021/12/31 08:58:48;;;;;;;7.22;3.17;;;;;;;12.90;100.00;101276.22;4908846;28;20054;-76
2021/12/31 09:01:13;;;;;;;8.30;2.90;;;;;;;12.93;100.00;101277.66;4924036;28;20038;-76
2021/12/31 09:03:39;;;;;;;7.97;2.95;;;;;;;12.93;100.00;101279.53;4925588;28;20035;-76
2021/12/31 09:06:05;;;;;;;8.45;3.35;;;;;;;12.89;100.00;101279.97;4925204;28;20078;-76
2021/12/31 09:08:33;;;;;;;8.52;3.22;;;;;;;12.96;100.00;101282.63;4940322;28;20046;-77
2021/12/31 09:10:58;;;;;;;13.68;3.40;;;;;;;12.92;100.00;101278.72;4912938;28;20046;-77
2021/12/31 09:13:24;;;;;;;5.88;2.83;;;;;;;12.90;100.00;101288.91;4926111;28;20081;-76
2021/12/31 09:15:49;;;;;;;15.02;3.58;;;;;;;12.84;100.00;101278.94;4923309;28;20123;-76
2021/12/31 09:18:15;;;;;;;6.68;2.90;;;;;;;12.78;100.00;101282.53;4910224;28;20050;-76
2021/12/31 09:20:40;;;;;;;5.10;3.20;;;;;;;12.89;100.00;101285.38;4928018;28;20113;-75
2021/12/31 09:23:06;;;;;;;9.60;3.58;;;;;;;12.85;100.00;101302.25;4911249;28;20080;-75
2021/12/31 09:25:32;;;;;;;7.47;3.33;;;;;;;12.83;100.00;101297.06;4926389;28;20035;-75
2021/12/31 09:27:57;;;;;;;15.68;3.78;;;;;;;12.72;100.00;101310.44;4925164;28;20081;-75
2021/12/31 09:30:23;;;;;;;9.05;3.17;;;;;;;12.73;100.00;101306.69;4891001;28;20153;-74
2021/12/31 09:32:48;;;;;;;7.47;3.05;;;;;;;12.78;100.00;101301.47;4923296;28;20139;-75
2021/12/31 09:35:14;;;;;;;6.70;3.53;;;;;;;12.78;100.00;101307.69;4910900;28;20096;-75
2021/12/31 09:37:40;;;;;;;10.52;3.05;;;;;;;12.80;100.00;101296.66;4923186;28;20063;-75
2021/12/31 09:40:07;;;;;;;9.27;3.05;;;;;;;12.86;100.00;101303.91;4921087;28;20022;-75
2021/12/31 09:42:32;;;;;;;7.78;3.05;;;;;;;12.82;100.00;101299.97;4911420;28;20125;-73
2021/12/31 09:44:58;;;;;;;9.82;3.28;;;;;;;12.92;100.00;101305.75;4923648;28;20486;-74
2021/12/31 09:47:23;;;;;;;5.07;2.88;;;;;;;12.84;100.00;101295.16;4912988;28;20110;-75
2021/12/31 09:49:49;;;;;;;8.07;3.17;;;;;;;12.85;100.00;101299.56;4927066;28;20042;-76
2021/12/31 09:52:16;;;;;;;9.75;2.83;;;;;;;12.93;100.00;101320.91;4920609;28;20142;-74
2021/12/31 09:54:43;;;;;;;9.02;3.20;;;;;;;12.95;100.00;101312.56;4914728;28;20055;-77
2021/12/31 09:57:16;;;;;;;9.02;2.78;;;;;;;12.88;100.00;101315.31;4924617;28;20093;-74
2021/12/31 09:59:42;;;;;;;6.00;3.13;;;;;;;12.81;100.00;101315.38;4910776;28;20050;-75
2021/12/31 10:02:09;;;;;;;6.72;2.78;;;;;;;12.89;100.00;101317.00;4927522;28;20712;-75
2021/12/31 10:04:55;;;;;;;8.80;3.10;;;;;;;12.83;100.00;101334.06;4920634;28;20046;-76
2021/12/31 10:07:23;;;;;;;7.30;3.10;;;;;;;12.75;100.00;101339.75;4926970;28;20039;-76
2021/12/31 10:10:03;;;;;;;15.32;2.65;;;;;;;12.64;100.00;101325.84;4925708;28;20046;-76
2021/12/31 10:12:49;;;;;;;13.63;3.40;;;;;;;12.59;100.00;101325.66;4929805;28;20058;-76
2021/12/31 10:15:17;;;;;;;6.60;3.28;;;;;;;12.51;100.00;101328.59;4924041;28;20049;-76
2021/12/31 10:17:42;;;;;;;7.55;3.20;;;;;;;12.45;100.00;101337.56;4913211;28;20054;-75
2021/12/31 10:20:08;;;;;;;7.53;3.45;;;;;;;12.31;100.00;101328.66;4925570;28;20051;-76
2021/12/31 10:22:34;;;;;;;6.05;3.70;;;;;;;12.33;100.00;101323.06;4904642;28;20059;-77
2021/12/31 10:24:59;;;;;;;11.90;3.72;;;;;;;12.22;100.00;101315.63;4920959;28;20051;-77
2021/12/31 10:27:25;;;;;;;13.10;3.58;;;;;;;12.24;100.00;101317.03;4933321;28;20038;-77
2021/12/31 10:29:57;;;;;;;9.90;3.50;;;;;;;12.20;100.00;101323.09;4913679;28;20332;-73
2021/12/31 10:32:26;;;;;;;8.05;3.80;;;;;;;12.18;100.00;101332.25;4908623;28;20067;-73
2021/12/31 10:34:52;;;;;;;10.50;3.80;;;;;;;12.12;100.00;101332.25;4918478;28;20051;-73
2021/12/31 10:37:22;;;;;;;8.02;4.07;;;;;;;12.05;100.00;101326.88;4915893;28;20226;-73
2021/12/31 10:39:59;;;;;;;14.95;6.63;;;;;;;12.01;100.00;101331.03;4923800;28;20403;-73
2021/12/31 10:42:32;;;;;;;9.52;4.40;;;;;;;11.96;100.00;101338.09;4890285;28;20054;-73
2021/12/31 10:44:58;;;;;;;10.80;4.15;;;;;;;12.01;100.00;101320.22;4925490;28;20034;-72
2021/12/31 10:47:37;;;;;;;10.30;3.95;;;;;;;12.03;100.00;101318.13;4910320;28;20057;-72
2021/12/31 10:50:02;;;;;;;11.02;4.80;;;;;;;11.98;100.00;101323.34;4926504;28;25184;-73
2021/12/31 10:52:35;;;;;;;8.88;4.13;;;;;;;12.00;100.00;101307.75;4936822;28;20044;-72
2021/12/31 10:55:21;;;;;;;10.85;4.05;;;;;;;12.07;100.00;101323.94;4913314;28;20050;-73
2021/12/31 10:57:49;;;;;;;11.63;4.72;;;;;;;12.05;100.00;101320.63;4923655;28;20810;-73
2021/12/31 11:00:16;;;;;;;8.32;4.47;;;;;;;12.00;100.00;101315.84;4911373;28;20047;-74
2021/12/31 11:02:45;;;;;;;9.73;4.60;;;;;;;11.88;100.00;101320.25;4906731;28;20050;-73
2021/12/31 11:05:15;;;;;;;8.68;4.90;;;;;;;11.78;100.00;101325.22;4908721;28;20134;-73
2021/12/31 11:07:41;;;;;;;13.55;4.65;;;;;;;11.78;100.00;101328.72;4925365;28;20185;-72
2021/12/31 11:10:08;;;;;;;10.18;4.68;;;;;;;11.85;100.00;101309.88;4924515;28;20035;-73
2021/12/31 11:12:34;;;;;;;9.15;4.40;;;;;;;11.87;100.00;101315.91;4909312;28;20047;-73